Fayetteville Regional Grannis Field
KFAY : rendu visible

Aérodrome :











RETROUVEZ-NOUS SUR...

 
LOGIN :

S'inscrire | Disclaimer

   EN    FR    IT 

 









Légende :    VFR   VFR Marginal   IFR   IFR Intensif   IFR Très Intensif
Visi : 
Plafond : 
>= 8 km
>= 3000ft
5 à 8 km
1000 à 3000 ft
1500m à 5 km
500 à 1000 ft
800 à 1500m
200 à 500 ft
< 800m
< 200 ft
Symboles :   Orages  Brouillard  Fortes neiges  Fortes précipitations  Vent > 20 kt






- Altitude de l'aérodrome : 189 ft
- Code IATA : FAY


KFAY - Fayetteville Regional Grannis Field

DERNIER METAR :
  • 082153Z 04010KT 10SM CLR 31/22 A2982 RMK AO2 SLP093 T03060217

METARs EXPIRÉS :
  • 082053Z 03009KT 10SM CLR 30/23 A2982 RMK AO2 SLP092 T03000233 58026
  • 081953Z 01010KT 10SM SCT095 31/23 A2986 RMK AO2 SLP103 T03060233

TAF KFAY
Valide du 08 à 18h jusqu'au 09 à 18h UTC


081740Z 0818/0918 03008KT P6SM -SHRA BKN050
TEMPO 0818/0821 2SM SHRA BKN025
FM090000 02005KT P6SM VCSH BKN050
FM090600 02005KT P6SM OVC007
FM091400 01008KT P6SM VCSH BKN010
FIR KZDC / Amérique du Nord



MET'MAP, la Météo Aéronautique d'un coup d'oeil ! - Copyright ORBIFLY Décembre 2007 - Disclaimer

ORBIFLY MET'MAP TEAM :

Programmation & Développement : Alexandra Zaïnal
Sur une idée originale de : Baudouin d'Aumeries
Assistance à la programmation : Marc-Olivier Méhu
Soutien technique & logistique : Manuel Goepfert

Contact : metmap@orbifly.com




SOURCES & CREDITS :

   NOAA       Earth
Advisory